SWR1MH EHAM-LSZH
Flight info
| Callsign | SWR1MH |
|---|---|
| Flight time | 1h 13m |
| Altitude | 35000 |
| Route | EDUPO Z739 MISGO DCT ASBON DCT TUSUK DCT LAMGO T721 RILAX |
| Aircraft | A320/M-SDE3FGHIRWY/LB1 |
Departure
| Time | 2026-05-05 18:21 |
|---|---|
| Airport | Amsterdam Airport Schiphol (EHAM) |
Arrival
| Time | 2026-05-05 19:34 |
|---|---|
| Airport | Zürich Airport (LSZH) |
| Time | Latitude | Longitude | Altitude | Speed | Heading |
|---|---|---|---|---|---|
| 2026-05-05 18:00 | 52.30342 | 4.76427 | -1 ft | 0 kts | 238° |
| 2026-05-05 18:10 | 52.30350 | 4.76449 | -1 ft | 4 kts | 238° |
| 2026-05-05 18:11 | 52.30365 | 4.76483 | -1 ft | 4 kts | 208° |
| 2026-05-05 18:11 | 52.30378 | 4.76488 | -1 ft | 0 kts | 158° |
| 2026-05-05 18:13 | 52.30373 | 4.76492 | -1 ft | 2 kts | 154° |
| 2026-05-05 18:14 | 52.30308 | 4.76525 | -1 ft | 15 kts | 196° |
| 2026-05-05 18:14 | 52.30246 | 4.76397 | -1 ft | 14 kts | 238° |
| 2026-05-05 18:14 | 52.30196 | 4.76266 | -1 ft | 13 kts | 238° |
| 2026-05-05 18:14 | 52.30149 | 4.76142 | -1 ft | 12 kts | 238° |
| 2026-05-05 18:15 | 52.30106 | 4.76027 | -1 ft | 12 kts | 238° |
| 2026-05-05 18:15 | 52.30064 | 4.75918 | -1 ft | 11 kts | 238° |
| 2026-05-05 18:15 | 52.30025 | 4.75817 | -1 ft | 10 kts | 238° |
| 2026-05-05 18:15 | 52.29988 | 4.75721 | -1 ft | 10 kts | 238° |
| 2026-05-05 18:16 | 52.29954 | 4.75634 | -1 ft | 9 kts | 238° |
| 2026-05-05 18:16 | 52.29922 | 4.75551 | -1 ft | 9 kts | 238° |
| 2026-05-05 18:16 | 52.29868 | 4.75410 | -1 ft | 19 kts | 238° |
| 2026-05-05 18:16 | 52.29840 | 4.75221 | -1 ft | 18 kts | 287° |
| 2026-05-05 18:17 | 52.29924 | 4.75042 | -1 ft | 24 kts | 312° |
| 2026-05-05 18:17 | 52.30056 | 4.74810 | 0 ft | 31 kts | 311° |
| 2026-05-05 18:17 | 52.30183 | 4.74561 | 10 ft | 27 kts | 311° |
| 2026-05-05 18:17 | 52.30307 | 4.74329 | 4 ft | 27 kts | 308° |
| 2026-05-05 18:18 | 52.30364 | 4.74114 | -1 ft | 16 kts | 247° |
| 2026-05-05 18:18 | 52.30287 | 4.73995 | -1 ft | 15 kts | 219° |
| 2026-05-05 18:18 | 52.30233 | 4.73923 | -1 ft | 0 kts | 217° |
| 2026-05-05 18:19 | 52.30231 | 4.73921 | -1 ft | 0 kts | 217° |
| 2026-05-05 18:19 | 52.30228 | 4.73918 | -1 ft | 2 kts | 217° |
| 2026-05-05 18:19 | 52.30203 | 4.73885 | -1 ft | 7 kts | 223° |
| 2026-05-05 18:20 | 52.30187 | 4.73817 | -2 ft | 7 kts | 268° |
| 2026-05-05 18:20 | 52.30221 | 4.73744 | -2 ft | 10 kts | 343° |
| 2026-05-05 18:20 | 52.30233 | 4.73742 | -3 ft | 0 kts | 359° |
| 2026-05-05 18:20 | 52.30363 | 4.73748 | -4 ft | 54 kts | 2° |
| 2026-05-05 18:21 | 52.30977 | 4.73807 | -1 ft | 120 kts | 3° |
| 2026-05-05 18:21 | 52.31958 | 4.73904 | 248 ft | 151 kts | 3° |
| 2026-05-05 18:21 | 52.33022 | 4.74096 | 978 ft | 156 kts | 15° |
| 2026-05-05 18:21 | 52.34019 | 4.74791 | 1847 ft | 155 kts | 26° |
| 2026-05-05 18:22 | 52.35015 | 4.75521 | 2515 ft | 164 kts | 22° |
| 2026-05-05 18:22 | 52.36128 | 4.76151 | 2881 ft | 186 kts | 20° |
| 2026-05-05 18:22 | 52.37433 | 4.76893 | 3289 ft | 211 kts | 26° |
| 2026-05-05 18:22 | 52.38673 | 4.78392 | 3802 ft | 235 kts | 43° |
| 2026-05-05 18:23 | 52.39869 | 4.80331 | 4627 ft | 246 kts | 44° |
| 2026-05-05 18:23 | 52.41066 | 4.82397 | 5543 ft | 255 kts | 50° |
| 2026-05-05 18:23 | 52.41973 | 4.84960 | 6404 ft | 267 kts | 68° |
| 2026-05-05 18:23 | 52.42382 | 4.87977 | 7252 ft | 277 kts | 86° |
| 2026-05-05 18:24 | 52.42398 | 4.91161 | 8171 ft | 282 kts | 89° |
| 2026-05-05 18:24 | 52.42363 | 4.94398 | 9103 ft | 287 kts | 96° |
| 2026-05-05 18:24 | 52.41864 | 4.97585 | 10008 ft | 293 kts | 114° |
| 2026-05-05 18:24 | 52.40795 | 5.00434 | 10592 ft | 309 kts | 131° |
| 2026-05-05 18:25 | 52.39151 | 5.02745 | 10898 ft | 332 kts | 145° |
| 2026-05-05 18:25 | 52.37843 | 5.04236 | 11094 ft | 348 kts | 146° |
| 2026-05-05 18:25 | 52.35146 | 5.07301 | 11883 ft | 361 kts | 145° |
| 2026-05-05 18:25 | 52.33161 | 5.09859 | 12667 ft | 366 kts | 136° |
| 2026-05-05 18:26 | 52.31421 | 5.12937 | 13466 ft | 371 kts | 131° |
| 2026-05-05 18:26 | 52.29700 | 5.16096 | 14212 ft | 374 kts | 131° |
| 2026-05-05 18:26 | 52.27952 | 5.19282 | 14939 ft | 378 kts | 132° |
| 2026-05-05 18:26 | 52.26191 | 5.22472 | 15661 ft | 381 kts | 132° |
| 2026-05-05 18:27 | 52.24425 | 5.25726 | 16374 ft | 384 kts | 129° |
| 2026-05-05 18:27 | 52.22855 | 5.29261 | 17066 ft | 387 kts | 125° |
| 2026-05-05 18:27 | 52.21296 | 5.32858 | 17759 ft | 390 kts | 126° |
| 2026-05-05 18:27 | 52.19727 | 5.36480 | 18397 ft | 393 kts | 126° |
| 2026-05-05 18:28 | 52.16583 | 5.43719 | 19571 ft | 397 kts | 126° |
| 2026-05-05 18:28 | 52.14980 | 5.47396 | 20171 ft | 400 kts | 127° |
| 2026-05-05 18:28 | 52.13364 | 5.51097 | 20729 ft | 403 kts | 127° |
| 2026-05-05 18:29 | 52.11734 | 5.54827 | 21272 ft | 406 kts | 127° |
| 2026-05-05 18:29 | 52.10106 | 5.58542 | 21798 ft | 409 kts | 127° |
| 2026-05-05 18:29 | 52.08430 | 5.62360 | 22333 ft | 412 kts | 127° |
| 2026-05-05 18:29 | 52.06758 | 5.66173 | 22865 ft | 415 kts | 128° |
| 2026-05-05 18:30 | 52.04947 | 5.69828 | 23374 ft | 417 kts | 133° |
| 2026-05-05 18:30 | 52.03039 | 5.73390 | 23833 ft | 419 kts | 133° |
| 2026-05-05 18:30 | 52.01118 | 5.76962 | 24259 ft | 421 kts | 133° |
| 2026-05-05 18:30 | 51.99180 | 5.80554 | 24680 ft | 424 kts | 133° |
| 2026-05-05 18:31 | 51.97235 | 5.84159 | 25114 ft | 426 kts | 133° |
| 2026-05-05 18:31 | 51.95282 | 5.87792 | 25530 ft | 428 kts | 133° |
| 2026-05-05 18:31 | 51.93645 | 5.90850 | 25885 ft | 430 kts | 133° |
| 2026-05-05 18:31 | 51.91688 | 5.94512 | 26305 ft | 432 kts | 133° |
| 2026-05-05 18:32 | 51.89713 | 5.98203 | 26703 ft | 434 kts | 133° |
| 2026-05-05 18:32 | 51.87735 | 6.01894 | 27115 ft | 435 kts | 133° |
| 2026-05-05 18:32 | 51.85747 | 6.05589 | 27500 ft | 437 kts | 133° |
| 2026-05-05 18:32 | 51.83737 | 6.09313 | 27865 ft | 439 kts | 133° |
| 2026-05-05 18:33 | 51.81718 | 6.13030 | 28239 ft | 441 kts | 134° |
| 2026-05-05 18:33 | 51.79686 | 6.16752 | 28607 ft | 443 kts | 134° |
| 2026-05-05 18:33 | 51.77670 | 6.20433 | 28956 ft | 444 kts | 134° |
| 2026-05-05 18:33 | 51.75614 | 6.24180 | 29300 ft | 446 kts | 134° |
| 2026-05-05 18:34 | 51.73559 | 6.27921 | 29709 ft | 446 kts | 134° |
| 2026-05-05 18:34 | 51.71498 | 6.31667 | 30180 ft | 444 kts | 134° |
| 2026-05-05 18:34 | 51.69453 | 6.35387 | 30638 ft | 442 kts | 134° |
| 2026-05-05 18:34 | 51.67422 | 6.39081 | 31095 ft | 439 kts | 134° |
| 2026-05-05 18:35 | 51.65401 | 6.42755 | 31556 ft | 437 kts | 134° |
| 2026-05-05 18:35 | 51.63393 | 6.46400 | 32025 ft | 434 kts | 134° |
| 2026-05-05 18:35 | 51.61394 | 6.50022 | 32492 ft | 432 kts | 134° |
| 2026-05-05 18:35 | 51.59398 | 6.53628 | 32961 ft | 429 kts | 135° |
| 2026-05-05 18:36 | 51.57420 | 6.57195 | 33439 ft | 427 kts | 135° |
| 2026-05-05 18:36 | 51.55464 | 6.60754 | 33894 ft | 425 kts | 134° |
| 2026-05-05 18:36 | 51.53558 | 6.64374 | 34256 ft | 424 kts | 133° |
| 2026-05-05 18:36 | 51.51665 | 6.67987 | 34549 ft | 424 kts | 133° |
| 2026-05-05 18:37 | 51.49756 | 6.71628 | 34775 ft | 426 kts | 133° |
| 2026-05-05 18:37 | 51.47905 | 6.75152 | 34845 ft | 427 kts | 133° |
| 2026-05-05 18:37 | 51.45852 | 6.78577 | 34841 ft | 423 kts | 144° |
| 2026-05-05 18:37 | 51.43450 | 6.81272 | 34850 ft | 421 kts | 148° |
| 2026-05-05 18:38 | 51.38578 | 6.86483 | 34835 ft | 421 kts | 148° |
| 2026-05-05 18:38 | 51.33684 | 6.91670 | 34840 ft | 421 kts | 148° |
| 2026-05-05 18:39 | 51.28804 | 6.96850 | 34832 ft | 421 kts | 148° |
| 2026-05-05 18:39 | 51.23919 | 7.02031 | 34839 ft | 421 kts | 148° |
| 2026-05-05 18:40 | 51.19049 | 7.07171 | 34830 ft | 421 kts | 148° |
| 2026-05-05 18:40 | 51.14162 | 7.12313 | 34833 ft | 421 kts | 148° |
| 2026-05-05 18:41 | 51.09286 | 7.17438 | 34824 ft | 420 kts | 148° |
| 2026-05-05 18:41 | 51.04400 | 7.22548 | 34810 ft | 420 kts | 148° |
| 2026-05-05 18:42 | 50.99516 | 7.27657 | 34829 ft | 420 kts | 148° |
| 2026-05-05 18:42 | 50.94634 | 7.32759 | 34824 ft | 420 kts | 148° |
| 2026-05-05 18:43 | 50.89750 | 7.37843 | 34818 ft | 420 kts | 148° |
| 2026-05-05 18:43 | 50.84861 | 7.42911 | 34821 ft | 420 kts | 148° |
| 2026-05-05 18:44 | 50.79991 | 7.47929 | 34810 ft | 420 kts | 148° |
| 2026-05-05 18:44 | 50.75091 | 7.52979 | 34812 ft | 420 kts | 148° |
| 2026-05-05 18:45 | 50.70196 | 7.58026 | 34810 ft | 421 kts | 148° |
| 2026-05-05 18:45 | 50.65291 | 7.63071 | 34799 ft | 421 kts | 148° |
| 2026-05-05 18:46 | 50.60077 | 7.67180 | 34796 ft | 420 kts | 157° |
| 2026-05-05 18:46 | 50.54705 | 7.70783 | 34801 ft | 420 kts | 157° |
| 2026-05-05 18:47 | 50.49323 | 7.74383 | 34802 ft | 420 kts | 157° |
| 2026-05-05 18:47 | 50.43937 | 7.77982 | 34794 ft | 421 kts | 157° |
| 2026-05-05 18:48 | 50.38545 | 7.81575 | 34810 ft | 421 kts | 157° |
| 2026-05-05 18:48 | 50.33147 | 7.85153 | 34813 ft | 421 kts | 157° |
| 2026-05-05 18:49 | 50.27742 | 7.88730 | 34810 ft | 422 kts | 157° |
| 2026-05-05 18:49 | 50.22370 | 7.92273 | 34814 ft | 422 kts | 157° |
| 2026-05-05 18:50 | 50.16961 | 7.95836 | 34817 ft | 422 kts | 157° |
| 2026-05-05 18:50 | 50.11541 | 7.99390 | 34820 ft | 423 kts | 157° |
| 2026-05-05 18:51 | 50.06113 | 8.02941 | 34826 ft | 423 kts | 157° |
| 2026-05-05 18:51 | 50.00681 | 8.06499 | 34835 ft | 424 kts | 157° |
| 2026-05-05 18:52 | 49.95251 | 8.10059 | 34837 ft | 424 kts | 157° |
| 2026-05-05 18:52 | 49.89806 | 8.13601 | 34829 ft | 425 kts | 157° |
| 2026-05-05 18:53 | 49.84350 | 8.17132 | 34833 ft | 425 kts | 157° |
| 2026-05-05 18:53 | 49.78892 | 8.20671 | 34825 ft | 426 kts | 157° |
| 2026-05-05 18:54 | 49.73422 | 8.24195 | 34820 ft | 426 kts | 158° |
| 2026-05-05 18:54 | 49.67945 | 8.27721 | 34824 ft | 426 kts | 157° |
| 2026-05-05 18:55 | 49.62470 | 8.31246 | 34819 ft | 427 kts | 158° |
| 2026-05-05 18:55 | 49.56984 | 8.34776 | 34821 ft | 427 kts | 158° |
| 2026-05-05 18:56 | 49.51485 | 8.38292 | 34813 ft | 428 kts | 158° |
| 2026-05-05 18:56 | 49.48728 | 8.40044 | 34457 ft | 430 kts | 158° |
| 2026-05-05 18:56 | 49.46008 | 8.41778 | 33870 ft | 429 kts | 157° |
| 2026-05-05 18:57 | 49.44151 | 8.42967 | 33411 ft | 428 kts | 157° |
| 2026-05-05 18:57 | 49.40514 | 8.45288 | 32515 ft | 429 kts | 157° |
| 2026-05-05 18:57 | 49.37739 | 8.47051 | 31855 ft | 431 kts | 157° |
| 2026-05-05 18:57 | 49.34961 | 8.48810 | 31215 ft | 434 kts | 157° |
| 2026-05-05 18:58 | 49.32162 | 8.50581 | 30580 ft | 436 kts | 157° |
| 2026-05-05 18:58 | 49.29350 | 8.52357 | 29969 ft | 439 kts | 157° |
| 2026-05-05 18:58 | 49.27439 | 8.53565 | 29493 ft | 440 kts | 157° |
| 2026-05-05 18:58 | 49.24541 | 8.55123 | 28778 ft | 443 kts | 167° |
| 2026-05-05 18:59 | 49.21526 | 8.55567 | 28107 ft | 445 kts | 180° |
| 2026-05-05 18:59 | 49.18365 | 8.55495 | 27419 ft | 448 kts | 180° |
| 2026-05-05 18:59 | 49.15282 | 8.55395 | 26773 ft | 451 kts | 181° |
| 2026-05-05 18:59 | 49.12144 | 8.55277 | 26129 ft | 450 kts | 181° |
| 2026-05-05 19:00 | 49.09027 | 8.55154 | 25499 ft | 446 kts | 181° |
| 2026-05-05 19:00 | 49.05939 | 8.55036 | 25000 ft | 443 kts | 181° |
| 2026-05-05 19:00 | 49.02859 | 8.54928 | 24802 ft | 442 kts | 181° |
| 2026-05-05 19:00 | 48.99786 | 8.54827 | 24836 ft | 442 kts | 181° |
| 2026-05-05 19:01 | 48.96715 | 8.54727 | 24662 ft | 442 kts | 181° |
| 2026-05-05 19:01 | 48.93647 | 8.54627 | 24421 ft | 440 kts | 181° |
| 2026-05-05 19:01 | 48.90595 | 8.54523 | 24185 ft | 439 kts | 181° |
| 2026-05-05 19:01 | 48.87545 | 8.54417 | 23950 ft | 437 kts | 181° |
| 2026-05-05 19:02 | 48.84508 | 8.54313 | 23719 ft | 435 kts | 181° |
| 2026-05-05 19:02 | 48.81488 | 8.54212 | 23491 ft | 434 kts | 181° |
| 2026-05-05 19:02 | 48.78477 | 8.54111 | 23225 ft | 432 kts | 181° |
| 2026-05-05 19:02 | 48.75481 | 8.54011 | 22955 ft | 430 kts | 181° |
| 2026-05-05 19:03 | 48.72491 | 8.53912 | 22678 ft | 428 kts | 181° |
| 2026-05-05 19:03 | 48.69519 | 8.53815 | 22410 ft | 426 kts | 181° |
| 2026-05-05 19:03 | 48.66558 | 8.53716 | 22141 ft | 425 kts | 181° |
| 2026-05-05 19:03 | 48.63610 | 8.53619 | 21875 ft | 423 kts | 181° |
| 2026-05-05 19:04 | 48.60675 | 8.53524 | 21614 ft | 421 kts | 181° |
| 2026-05-05 19:04 | 48.57747 | 8.53429 | 21351 ft | 420 kts | 182° |
| 2026-05-05 19:04 | 48.54834 | 8.53333 | 21092 ft | 418 kts | 182° |
| 2026-05-05 19:04 | 48.51934 | 8.53241 | 20839 ft | 416 kts | 182° |
| 2026-05-05 19:05 | 48.49036 | 8.53145 | 20581 ft | 415 kts | 182° |
| 2026-05-05 19:05 | 48.46161 | 8.53046 | 20334 ft | 414 kts | 182° |
| 2026-05-05 19:05 | 48.43281 | 8.52948 | 20081 ft | 413 kts | 182° |
| 2026-05-05 19:05 | 48.40424 | 8.52874 | 19834 ft | 412 kts | 180° |
| 2026-05-05 19:06 | 48.37607 | 8.53347 | 19596 ft | 411 kts | 174° |
| 2026-05-05 19:06 | 48.34723 | 8.53624 | 19349 ft | 409 kts | 180° |
| 2026-05-05 19:06 | 48.31884 | 8.53561 | 19103 ft | 408 kts | 184° |
| 2026-05-05 19:06 | 48.29093 | 8.53323 | 18865 ft | 406 kts | 185° |
| 2026-05-05 19:07 | 48.26279 | 8.53025 | 18629 ft | 405 kts | 185° |
| 2026-05-05 19:07 | 48.23573 | 8.52760 | 18402 ft | 404 kts | 185° |
| 2026-05-05 19:07 | 48.20762 | 8.52539 | 18171 ft | 403 kts | 184° |
| 2026-05-05 19:07 | 48.17972 | 8.52375 | 17921 ft | 401 kts | 184° |
| 2026-05-05 19:08 | 48.15180 | 8.52251 | 17684 ft | 400 kts | 183° |
| 2026-05-05 19:08 | 48.12414 | 8.52146 | 17403 ft | 398 kts | 183° |
| 2026-05-05 19:08 | 48.09649 | 8.52039 | 17152 ft | 396 kts | 183° |
| 2026-05-05 19:08 | 48.06907 | 8.51928 | 16888 ft | 394 kts | 184° |
| 2026-05-05 19:09 | 48.04179 | 8.51814 | 16632 ft | 392 kts | 184° |
| 2026-05-05 19:09 | 48.01452 | 8.51695 | 16477 ft | 390 kts | 184° |
| 2026-05-05 19:09 | 47.98734 | 8.51665 | 16512 ft | 392 kts | 179° |
| 2026-05-05 19:09 | 47.96031 | 8.52254 | 16567 ft | 395 kts | 169° |
| 2026-05-05 19:10 | 47.93412 | 8.53559 | 16676 ft | 399 kts | 159° |
| 2026-05-05 19:10 | 47.90971 | 8.55542 | 16841 ft | 404 kts | 149° |
| 2026-05-05 19:10 | 47.89496 | 8.57185 | 16885 ft | 406 kts | 143° |
| 2026-05-05 19:10 | 47.87310 | 8.59853 | 16888 ft | 406 kts | 143° |
| 2026-05-05 19:11 | 47.85121 | 8.62519 | 16883 ft | 406 kts | 143° |
| 2026-05-05 19:11 | 47.82959 | 8.65151 | 16880 ft | 393 kts | 143° |
| 2026-05-05 19:11 | 47.80899 | 8.67660 | 16892 ft | 373 kts | 144° |
| 2026-05-05 19:11 | 47.78939 | 8.70043 | 16887 ft | 355 kts | 144° |
| 2026-05-05 19:12 | 47.77071 | 8.72306 | 16886 ft | 338 kts | 144° |
| 2026-05-05 19:12 | 47.75286 | 8.74462 | 16890 ft | 323 kts | 144° |
| 2026-05-05 19:12 | 47.73581 | 8.76521 | 16894 ft | 309 kts | 145° |
| 2026-05-05 19:12 | 47.71943 | 8.78496 | 16887 ft | 299 kts | 145° |
| 2026-05-05 19:13 | 47.70335 | 8.80433 | 16892 ft | 296 kts | 145° |
| 2026-05-05 19:13 | 47.68734 | 8.82356 | 16760 ft | 297 kts | 145° |
| 2026-05-05 19:13 | 47.67137 | 8.84277 | 16509 ft | 295 kts | 145° |
| 2026-05-05 19:13 | 47.65546 | 8.86192 | 16242 ft | 294 kts | 145° |
| 2026-05-05 19:14 | 47.63990 | 8.88144 | 15984 ft | 294 kts | 141° |
| 2026-05-05 19:14 | 47.62591 | 8.90316 | 15734 ft | 296 kts | 134° |
| 2026-05-05 19:14 | 47.61353 | 8.92754 | 15479 ft | 298 kts | 127° |
| 2026-05-05 19:14 | 47.60303 | 8.95408 | 15219 ft | 299 kts | 120° |
| 2026-05-05 19:15 | 47.59354 | 8.98151 | 14965 ft | 299 kts | 121° |
| 2026-05-05 19:15 | 47.58326 | 9.00796 | 14731 ft | 293 kts | 134° |
| 2026-05-05 19:15 | 47.56719 | 9.02487 | 14491 ft | 281 kts | 163° |
| 2026-05-05 19:15 | 47.54916 | 9.03603 | 14250 ft | 285 kts | 151° |
| 2026-05-05 19:16 | 47.53585 | 9.05786 | 14013 ft | 294 kts | 117° |
| 2026-05-05 19:16 | 47.53247 | 9.08760 | 13883 ft | 300 kts | 84° |
| 2026-05-05 19:16 | 47.53612 | 9.11810 | 13886 ft | 303 kts | 80° |
| 2026-05-05 19:16 | 47.54118 | 9.14831 | 13887 ft | 303 kts | 67° |
| 2026-05-05 19:17 | 47.55249 | 9.17440 | 13889 ft | 301 kts | 44° |
| 2026-05-05 19:17 | 47.56935 | 9.19206 | 13885 ft | 297 kts | 20° |
| 2026-05-05 19:17 | 47.58914 | 9.19897 | 13890 ft | 290 kts | 358° |
| 2026-05-05 19:17 | 47.60879 | 9.19476 | 13894 ft | 284 kts | 336° |
| 2026-05-05 19:18 | 47.62576 | 9.18084 | 13889 ft | 277 kts | 316° |
| 2026-05-05 19:18 | 47.63815 | 9.15959 | 13889 ft | 271 kts | 296° |
| 2026-05-05 19:18 | 47.64480 | 9.13381 | 13889 ft | 267 kts | 277° |
| 2026-05-05 19:18 | 47.64521 | 9.10655 | 13892 ft | 264 kts | 259° |
| 2026-05-05 19:19 | 47.63947 | 9.08089 | 13891 ft | 263 kts | 241° |
| 2026-05-05 19:19 | 47.62837 | 9.05950 | 13891 ft | 264 kts | 223° |
| 2026-05-05 19:19 | 47.61297 | 9.04465 | 13889 ft | 267 kts | 205° |
| 2026-05-05 19:19 | 47.59507 | 9.03825 | 13888 ft | 272 kts | 186° |
| 2026-05-05 19:20 | 47.57625 | 9.04444 | 13894 ft | 283 kts | 153° |
| 2026-05-05 19:20 | 47.56250 | 9.06551 | 13890 ft | 294 kts | 119° |
| 2026-05-05 19:20 | 47.55718 | 9.09446 | 13895 ft | 300 kts | 97° |
| 2026-05-05 19:20 | 47.55646 | 9.12540 | 13890 ft | 302 kts | 90° |
| 2026-05-05 19:21 | 47.55687 | 9.15651 | 13892 ft | 302 kts | 90° |
| 2026-05-05 19:21 | 47.55828 | 9.18745 | 13891 ft | 303 kts | 76° |
| 2026-05-05 19:21 | 47.56729 | 9.21529 | 13893 ft | 301 kts | 50° |
| 2026-05-05 19:21 | 47.58290 | 9.23551 | 13825 ft | 299 kts | 25° |
| 2026-05-05 19:22 | 47.60241 | 9.24345 | 13574 ft | 288 kts | 356° |
| 2026-05-05 19:22 | 47.62092 | 9.23769 | 13316 ft | 278 kts | 329° |
| 2026-05-05 19:22 | 47.63574 | 9.22044 | 13047 ft | 269 kts | 304° |
| 2026-05-05 19:22 | 47.64384 | 9.19610 | 12794 ft | 262 kts | 279° |
| 2026-05-05 19:23 | 47.64430 | 9.16959 | 12526 ft | 257 kts | 257° |
| 2026-05-05 19:23 | 47.63739 | 9.14541 | 12270 ft | 256 kts | 234° |
| 2026-05-05 19:23 | 47.62445 | 9.12751 | 12009 ft | 257 kts | 213° |
| 2026-05-05 19:23 | 47.60987 | 9.11240 | 11748 ft | 255 kts | 227° |
| 2026-05-05 19:24 | 47.60131 | 9.09002 | 11500 ft | 251 kts | 256° |
| 2026-05-05 19:24 | 47.60058 | 9.06431 | 11210 ft | 251 kts | 272° |
| 2026-05-05 19:24 | 47.60229 | 9.03848 | 10884 ft | 252 kts | 274° |
| 2026-05-05 19:24 | 47.60430 | 9.01268 | 10568 ft | 252 kts | 274° |
| 2026-05-05 19:25 | 47.60636 | 8.98690 | 10244 ft | 252 kts | 274° |
| 2026-05-05 19:25 | 47.60845 | 8.96117 | 9923 ft | 252 kts | 274° |
| 2026-05-05 19:25 | 47.60791 | 8.93532 | 9410 ft | 253 kts | 251° |
| 2026-05-05 19:25 | 47.59901 | 8.91302 | 8876 ft | 255 kts | 224° |
| 2026-05-05 19:26 | 47.58520 | 8.89761 | 8362 ft | 249 kts | 215° |
| 2026-05-05 19:26 | 47.56960 | 8.88702 | 7946 ft | 242 kts | 191° |
| 2026-05-05 19:26 | 47.55331 | 8.89004 | 7890 ft | 242 kts | 159° |
| 2026-05-05 19:26 | 47.53919 | 8.90377 | 7894 ft | 249 kts | 146° |
| 2026-05-05 19:27 | 47.52562 | 8.92025 | 7896 ft | 249 kts | 144° |
| 2026-05-05 19:27 | 47.51231 | 8.93677 | 7900 ft | 251 kts | 144° |
| 2026-05-05 19:27 | 47.49914 | 8.95311 | 7891 ft | 250 kts | 144° |
| 2026-05-05 19:27 | 47.48580 | 8.96961 | 7894 ft | 250 kts | 144° |
| 2026-05-05 19:28 | 47.47096 | 8.98184 | 7887 ft | 242 kts | 171° |
| 2026-05-05 19:28 | 47.45461 | 8.98134 | 7862 ft | 237 kts | 198° |
| 2026-05-05 19:28 | 47.44010 | 8.96956 | 7253 ft | 244 kts | 226° |
| 2026-05-05 19:28 | 47.43158 | 8.94841 | 6908 ft | 240 kts | 255° |
| 2026-05-05 19:29 | 47.43064 | 8.92412 | 6596 ft | 238 kts | 274° |
| 2026-05-05 19:29 | 47.43250 | 8.90002 | 6266 ft | 235 kts | 275° |
| 2026-05-05 19:29 | 47.43436 | 8.87611 | 5919 ft | 233 kts | 275° |
| 2026-05-05 19:29 | 47.43613 | 8.85242 | 5573 ft | 232 kts | 275° |
| 2026-05-05 19:30 | 47.43786 | 8.82890 | 5235 ft | 230 kts | 275° |
| 2026-05-05 19:30 | 47.43958 | 8.80550 | 4898 ft | 227 kts | 275° |
| 2026-05-05 19:30 | 47.44127 | 8.78243 | 4567 ft | 224 kts | 275° |
| 2026-05-05 19:30 | 47.44291 | 8.76009 | 4237 ft | 214 kts | 275° |
| 2026-05-05 19:31 | 47.44446 | 8.73885 | 3933 ft | 200 kts | 274° |
| 2026-05-05 19:31 | 47.44589 | 8.71927 | 3652 ft | 184 kts | 274° |
| 2026-05-05 19:31 | 47.44719 | 8.70146 | 3408 ft | 166 kts | 274° |
| 2026-05-05 19:31 | 47.44836 | 8.68523 | 3179 ft | 151 kts | 274° |
| 2026-05-05 19:32 | 47.44944 | 8.67028 | 2972 ft | 142 kts | 273° |
| 2026-05-05 19:32 | 47.45048 | 8.65586 | 2746 ft | 140 kts | 274° |
| 2026-05-05 19:32 | 47.45150 | 8.64153 | 2527 ft | 141 kts | 274° |
| 2026-05-05 19:32 | 47.45250 | 8.62764 | 2304 ft | 138 kts | 275° |
| 2026-05-05 19:33 | 47.45351 | 8.61360 | 2112 ft | 138 kts | 275° |
| 2026-05-05 19:33 | 47.45448 | 8.60002 | 1903 ft | 139 kts | 274° |
| 2026-05-05 19:33 | 47.45550 | 8.58587 | 1701 ft | 139 kts | 274° |
| 2026-05-05 19:33 | 47.45650 | 8.57178 | 1531 ft | 139 kts | 274° |
| 2026-05-05 19:34 | 47.45744 | 8.55800 | 1407 ft | 124 kts | 274° |
| 2026-05-05 19:34 | 47.45803 | 8.54930 | 1396 ft | 55 kts | 274° |
| 2026-05-05 19:34 | 47.45808 | 8.54510 | 1399 ft | 25 kts | 264° |
| 2026-05-05 19:35 | 47.45686 | 8.54207 | 1400 ft | 17 kts | 190° |
| 2026-05-05 19:35 | 47.45607 | 8.54301 | 1399 ft | 13 kts | 108° |
| 2026-05-05 19:35 | 47.45586 | 8.54394 | 1405 ft | 9 kts | 109° |
| 2026-05-05 19:35 | 47.45566 | 8.54474 | 1400 ft | 8 kts | 111° |
| 2026-05-05 19:36 | 47.45552 | 8.54544 | 1397 ft | 7 kts | 106° |
| 2026-05-05 19:36 | 47.45539 | 8.54606 | 1400 ft | 6 kts | 107° |
| 2026-05-05 19:36 | 47.45518 | 8.54712 | 1397 ft | 15 kts | 107° |
| 2026-05-05 19:36 | 47.45479 | 8.54877 | 1399 ft | 18 kts | 109° |
| 2026-05-05 19:37 | 47.45434 | 8.55063 | 1405 ft | 20 kts | 109° |
| 2026-05-05 19:37 | 47.45402 | 8.55206 | 1407 ft | 4 kts | 109° |
| 2026-05-05 19:37 | 47.45402 | 8.55207 | 1407 ft | 0 kts | 109° |
| 2026-05-05 19:38 | 47.45401 | 8.55211 | 1406 ft | 1 kts | 109° |
| 2026-05-05 19:38 | 47.45401 | 8.55213 | 1406 ft | 0 kts | 109° |
| 2026-05-05 19:38 | 47.45398 | 8.55223 | 1403 ft | 2 kts | 109° |
| 2026-05-05 19:38 | 47.45392 | 8.55250 | 1399 ft | 3 kts | 109° |
| 2026-05-05 19:39 | 47.45385 | 8.55279 | 1402 ft | 3 kts | 109° |
| 2026-05-05 19:39 | 47.45378 | 8.55307 | 1400 ft | 3 kts | 109° |
| 2026-05-05 19:39 | 47.45382 | 8.55341 | 1398 ft | 6 kts | 66° |
| 2026-05-05 19:39 | 47.45435 | 8.55390 | 1404 ft | 10 kts | 26° |
| 2026-05-05 19:40 | 47.45496 | 8.55434 | 1402 ft | 9 kts | 26° |
| 2026-05-05 19:40 | 47.45526 | 8.55490 | 1406 ft | 8 kts | 81° |
| 2026-05-05 19:40 | 47.45522 | 8.55567 | 1397 ft | 7 kts | 97° |
| 2026-05-05 19:41 | 47.45516 | 8.55634 | 1400 ft | 6 kts | 97° |
| 2026-05-05 19:41 | 47.45512 | 8.55690 | 1397 ft | 5 kts | 96° |
| 2026-05-05 19:41 | 47.45508 | 8.55741 | 1399 ft | 5 kts | 96° |
| 2026-05-05 19:41 | 47.45505 | 8.55784 | 1402 ft | 4 kts | 96° |
| 2026-05-05 19:42 | 47.45501 | 8.55845 | 1405 ft | 8 kts | 96° |
| 2026-05-05 19:42 | 47.45496 | 8.55922 | 1397 ft | 7 kts | 96° |
| 2026-05-05 19:42 | 47.45491 | 8.55987 | 1397 ft | 6 kts | 96° |
| 2026-05-05 19:42 | 47.45487 | 8.56045 | 1402 ft | 5 kts | 96° |
| 2026-05-05 19:43 | 47.45468 | 8.56074 | 1403 ft | 4 kts | 159° |
| 2026-05-05 19:43 | 47.45448 | 8.56071 | 1398 ft | 3 kts | 190° |
| 2026-05-05 19:43 | 47.45432 | 8.56067 | 1403 ft | 3 kts | 189° |
| 2026-05-05 19:43 | 47.45405 | 8.56063 | 1400 ft | 3 kts | 186° |
| 2026-05-05 19:44 | 47.45401 | 8.56062 | 1399 ft | 0 kts | 186° |